sensor_id;sensor_type;location;lat;lon;timestamp;P1;durP1;ratioP1;P2;durP2;ratioP2
9056;SDS011;4563;54.756;9.400;2022-09-12T00:01:02;0.70;;;0.70;;
9056;SDS011;4563;54.756;9.400;2022-09-12T00:03:31;1.13;;;0.90;;
9056;SDS011;4563;54.756;9.400;2022-09-12T00:05:58;0.93;;;0.93;;
9056;SDS011;4563;54.756;9.400;2022-09-12T00:08:25;1.80;;;0.90;;
9056;SDS011;4563;54.756;9.400;2022-09-12T00:10:53;1.00;;;1.00;;
9056;SDS011;4563;54.756;9.400;2022-09-12T00:13:20;1.13;;;0.77;;
9056;SDS011;4563;54.756;9.400;2022-09-12T00:15:47;1.00;;;0.77;;
9056;SDS011;4563;54.756;9.400;2022-09-12T00:18:14;2.63;;;1.00;;
9056;SDS011;4563;54.756;9.400;2022-09-12T00:20:42;0.83;;;0.83;;
9056;SDS011;4563;54.756;9.400;2022-09-12T00:23:09;0.73;;;0.73;;
9056;SDS011;4563;54.756;9.400;2022-09-12T00:25:39;0.90;;;0.90;;
9056;SDS011;4563;54.756;9.400;2022-09-12T00:28:09;1.60;;;1.10;;
9056;SDS011;4563;54.756;9.400;2022-09-12T00:30:39;0.80;;;0.80;;
9056;SDS011;4563;54.756;9.400;2022-09-12T00:33:07;1.07;;;0.90;;
9056;SDS011;4563;54.756;9.400;2022-09-12T00:35:39;1.50;;;0.80;;
9056;SDS011;4563;54.756;9.400;2022-09-12T00:38:07;6.40;;;0.87;;
9056;SDS011;4563;54.756;9.400;2022-09-12T00:40:33;1.60;;;1.00;;
9056;SDS011;4563;54.756;9.400;2022-09-12T00:43:00;0.90;;;0.90;;
9056;SDS011;4563;54.756;9.400;2022-09-12T00:45:29;0.90;;;0.90;;
9056;SDS011;4563;54.756;9.400;2022-09-12T00:47:57;4.77;;;0.90;;
9056;SDS011;4563;54.756;9.400;2022-09-12T00:50:27;0.70;;;0.70;;
9056;SDS011;4563;54.756;9.400;2022-09-12T00:52:56;0.80;;;0.80;;
9056;SDS011;4563;54.756;9.400;2022-09-12T00:55:29;1.63;;;1.17;;
9056;SDS011;4563;54.756;9.400;2022-09-12T00:57:59;1.33;;;1.23;;
9056;SDS011;4563;54.756;9.400;2022-09-12T01:00:30;1.73;;;0.87;;
9056;SDS011;4563;54.756;9.400;2022-09-12T01:02:58;4.13;;;0.83;;
9056;SDS011;4563;54.756;9.400;2022-09-12T01:05:29;1.87;;;0.70;;
9056;SDS011;4563;54.756;9.400;2022-09-12T01:07:59;1.00;;;1.00;;
9056;SDS011;4563;54.756;9.400;2022-09-12T01:10:27;1.10;;;0.80;;
9056;SDS011;4563;54.756;9.400;2022-09-12T01:12:54;0.80;;;0.80;;
9056;SDS011;4563;54.756;9.400;2022-09-12T01:15:21;0.90;;;0.80;;
9056;SDS011;4563;54.756;9.400;2022-09-12T01:17:53;0.83;;;0.83;;
9056;SDS011;4563;54.756;9.400;2022-09-12T01:20:34;0.80;;;0.80;;
9056;SDS011;4563;54.756;9.400;2022-09-12T01:23:21;3.10;;;0.73;;
9056;SDS011;4563;54.756;9.400;2022-09-12T01:26:12;0.90;;;0.80;;
9056;SDS011;4563;54.756;9.400;2022-09-12T01:29:00;1.23;;;1.00;;
9056;SDS011;4563;54.756;9.400;2022-09-12T01:31:53;1.00;;;1.00;;
9056;SDS011;4563;54.756;9.400;2022-09-12T01:34:30;0.97;;;0.97;;
9056;SDS011;4563;54.756;9.400;2022-09-12T01:37:06;2.30;;;1.13;;
9056;SDS011;4563;54.756;9.400;2022-09-12T01:39:39;1.17;;;1.17;;
9056;SDS011;4563;54.756;9.400;2022-09-12T01:42:17;2.80;;;1.30;;
9056;SDS011;4563;54.756;9.400;2022-09-12T01:44:51;1.17;;;1.17;;
9056;SDS011;4563;54.756;9.400;2022-09-12T01:47:25;1.90;;;1.00;;
9056;SDS011;4563;54.756;9.400;2022-09-12T01:49:59;1.10;;;1.10;;
9056;SDS011;4563;54.756;9.400;2022-09-12T01:52:32;2.93;;;1.03;;
9056;SDS011;4563;54.756;9.400;2022-09-12T01:55:04;1.30;;;0.90;;
9056;SDS011;4563;54.756;9.400;2022-09-12T01:57:37;1.30;;;1.20;;
9056;SDS011;4563;54.756;9.400;2022-09-12T02:00:08;1.07;;;0.90;;
9056;SDS011;4563;54.756;9.400;2022-09-12T02:02:38;2.20;;;1.10;;
9056;SDS011;4563;54.756;9.400;2022-09-12T02:05:12;1.40;;;1.03;;
9056;SDS011;4563;54.756;9.400;2022-09-12T02:07:43;0.80;;;0.80;;
9056;SDS011;4563;54.756;9.400;2022-09-12T02:10:13;0.93;;;0.93;;
9056;SDS011;4563;54.756;9.400;2022-09-12T02:12:43;1.10;;;0.73;;
9056;SDS011;4563;54.756;9.400;2022-09-12T02:15:14;1.00;;;1.00;;
9056;SDS011;4563;54.756;9.400;2022-09-12T02:17:46;0.90;;;0.90;;
9056;SDS011;4563;54.756;9.400;2022-09-12T02:20:17;1.13;;;0.60;;
9056;SDS011;4563;54.756;9.400;2022-09-12T02:22:46;0.83;;;0.70;;
9056;SDS011;4563;54.756;9.400;2022-09-12T02:25:15;0.70;;;0.60;;
9056;SDS011;4563;54.756;9.400;2022-09-12T02:27:45;0.60;;;0.60;;
9056;SDS011;4563;54.756;9.400;2022-09-12T02:30:15;0.70;;;0.70;;
9056;SDS011;4563;54.756;9.400;2022-09-12T02:32:44;0.70;;;0.70;;
9056;SDS011;4563;54.756;9.400;2022-09-12T02:35:24;1.60;;;0.87;;
9056;SDS011;4563;54.756;9.400;2022-09-12T02:37:59;0.63;;;0.63;;
9056;SDS011;4563;54.756;9.400;2022-09-12T02:40:32;2.07;;;0.80;;
9056;SDS011;4563;54.756;9.400;2022-09-12T02:43:00;0.70;;;0.70;;
9056;SDS011;4563;54.756;9.400;2022-09-12T02:45:28;0.70;;;0.70;;
9056;SDS011;4563;54.756;9.400;2022-09-12T02:48:00;0.70;;;0.70;;
9056;SDS011;4563;54.756;9.400;2022-09-12T02:50:31;0.73;;;0.73;;
9056;SDS011;4563;54.756;9.400;2022-09-12T02:52:58;0.70;;;0.70;;
9056;SDS011;4563;54.756;9.400;2022-09-12T02:55:29;0.97;;;0.80;;
9056;SDS011;4563;54.756;9.400;2022-09-12T02:57:57;0.80;;;0.80;;
9056;SDS011;4563;54.756;9.400;2022-09-12T03:00:25;0.97;;;0.70;;
9056;SDS011;4563;54.756;9.400;2022-09-12T03:02:57;2.00;;;0.77;;
9056;SDS011;4563;54.756;9.400;2022-09-12T03:05:39;4.43;;;0.70;;
9056;SDS011;4563;54.756;9.400;2022-09-12T03:08:29;2.97;;;0.83;;
9056;SDS011;4563;54.756;9.400;2022-09-12T03:11:08;1.07;;;0.90;;
9056;SDS011;4563;54.756;9.400;2022-09-12T03:13:54;0.70;;;0.70;;
9056;SDS011;4563;54.756;9.400;2022-09-12T03:16:32;0.80;;;0.80;;
9056;SDS011;4563;54.756;9.400;2022-09-12T03:19:09;1.00;;;1.00;;
9056;SDS011;4563;54.756;9.400;2022-09-12T03:21:46;1.00;;;1.00;;
9056;SDS011;4563;54.756;9.400;2022-09-12T03:24:24;0.87;;;0.80;;
9056;SDS011;4563;54.756;9.400;2022-09-12T03:26:57;0.70;;;0.70;;
9056;SDS011;4563;54.756;9.400;2022-09-12T03:29:30;0.80;;;0.80;;
9056;SDS011;4563;54.756;9.400;2022-09-12T03:31:57;1.73;;;1.10;;
9056;SDS011;4563;54.756;9.400;2022-09-12T03:34:26;2.77;;;1.23;;
9056;SDS011;4563;54.756;9.400;2022-09-12T03:36:53;0.80;;;0.80;;
9056;SDS011;4563;54.756;9.400;2022-09-12T03:39:21;1.03;;;1.03;;
9056;SDS011;4563;54.756;9.400;2022-09-12T03:41:50;0.90;;;0.90;;
9056;SDS011;4563;54.756;9.400;2022-09-12T03:44:17;1.10;;;1.10;;
9056;SDS011;4563;54.756;9.400;2022-09-12T03:46:44;1.57;;;1.20;;
9056;SDS011;4563;54.756;9.400;2022-09-12T03:49:11;1.27;;;1.27;;
9056;SDS011;4563;54.756;9.400;2022-09-12T03:51:40;1.07;;;1.07;;
9056;SDS011;4563;54.756;9.400;2022-09-12T03:54:07;0.93;;;0.93;;
9056;SDS011;4563;54.756;9.400;2022-09-12T03:56:33;1.23;;;1.23;;
9056;SDS011;4563;54.756;9.400;2022-09-12T03:59:03;1.70;;;1.60;;
9056;SDS011;4563;54.756;9.400;2022-09-12T04:01:30;1.23;;;1.23;;
9056;SDS011;4563;54.756;9.400;2022-09-12T04:03:57;1.40;;;1.30;;
9056;SDS011;4563;54.756;9.400;2022-09-12T04:06:24;1.77;;;1.67;;
9056;SDS011;4563;54.756;9.400;2022-09-12T04:08:52;2.07;;;1.83;;
9056;SDS011;4563;54.756;9.400;2022-09-12T04:11:20;2.00;;;1.90;;
9056;SDS011;4563;54.756;9.400;2022-09-12T04:13:48;1.40;;;1.40;;
9056;SDS011;4563;54.756;9.400;2022-09-12T04:16:16;1.90;;;1.80;;
9056;SDS011;4563;54.756;9.400;2022-09-12T04:18:43;2.33;;;1.83;;
9056;SDS011;4563;54.756;9.400;2022-09-12T04:21:12;1.93;;;1.83;;
9056;SDS011;4563;54.756;9.400;2022-09-12T04:23:40;1.40;;;1.33;;
9056;SDS011;4563;54.756;9.400;2022-09-12T04:26:08;1.87;;;1.50;;
9056;SDS011;4563;54.756;9.400;2022-09-12T04:28:36;1.40;;;1.30;;
9056;SDS011;4563;54.756;9.400;2022-09-12T04:31:04;1.20;;;1.20;;
9056;SDS011;4563;54.756;9.400;2022-09-12T04:33:31;4.70;;;1.50;;
9056;SDS011;4563;54.756;9.400;2022-09-12T04:36:01;1.73;;;1.63;;
9056;SDS011;4563;54.756;9.400;2022-09-12T04:38:29;1.50;;;1.40;;
9056;SDS011;4563;54.756;9.400;2022-09-12T04:40:56;1.60;;;1.50;;
9056;SDS011;4563;54.756;9.400;2022-09-12T04:43:24;1.60;;;1.50;;
9056;SDS011;4563;54.756;9.400;2022-09-12T04:45:51;1.50;;;1.40;;
9056;SDS011;4563;54.756;9.400;2022-09-12T04:48:18;1.60;;;1.50;;
9056;SDS011;4563;54.756;9.400;2022-09-12T04:50:45;1.67;;;1.57;;
9056;SDS011;4563;54.756;9.400;2022-09-12T04:53:11;2.93;;;2.27;;
9056;SDS011;4563;54.756;9.400;2022-09-12T04:55:38;3.57;;;2.63;;
9056;SDS011;4563;54.756;9.400;2022-09-12T04:58:05;2.90;;;2.60;;
9056;SDS011;4563;54.756;9.400;2022-09-12T05:00:33;2.50;;;2.40;;
9056;SDS011;4563;54.756;9.400;2022-09-12T05:03:00;3.00;;;2.80;;
9056;SDS011;4563;54.756;9.400;2022-09-12T05:05:29;3.30;;;2.50;;
9056;SDS011;4563;54.756;9.400;2022-09-12T05:07:56;3.40;;;3.10;;
9056;SDS011;4563;54.756;9.400;2022-09-12T05:10:22;5.43;;;2.73;;
9056;SDS011;4563;54.756;9.400;2022-09-12T05:12:50;3.57;;;3.33;;
9056;SDS011;4563;54.756;9.400;2022-09-12T05:15:18;3.20;;;3.00;;
9056;SDS011;4563;54.756;9.400;2022-09-12T05:17:46;2.97;;;2.77;;
9056;SDS011;4563;54.756;9.400;2022-09-12T05:20:13;3.10;;;3.00;;
9056;SDS011;4563;54.756;9.400;2022-09-12T05:22:41;3.17;;;2.97;;
9056;SDS011;4563;54.756;9.400;2022-09-12T05:25:08;3.57;;;3.33;;
9056;SDS011;4563;54.756;9.400;2022-09-12T05:27:35;4.50;;;4.10;;
9056;SDS011;4563;54.756;9.400;2022-09-12T05:30:02;4.40;;;4.10;;
9056;SDS011;4563;54.756;9.400;2022-09-12T05:32:30;4.20;;;3.90;;
9056;SDS011;4563;54.756;9.400;2022-09-12T05:34:58;3.70;;;3.50;;
9056;SDS011;4563;54.756;9.400;2022-09-12T05:37:25;3.77;;;3.47;;
9056;SDS011;4563;54.756;9.400;2022-09-12T05:39:52;4.03;;;3.63;;
9056;SDS011;4563;54.756;9.400;2022-09-12T05:42:19;5.37;;;4.20;;
9056;SDS011;4563;54.756;9.400;2022-09-12T05:44:47;4.70;;;4.23;;
9056;SDS011;4563;54.756;9.400;2022-09-12T05:47:14;5.60;;;3.83;;
9056;SDS011;4563;54.756;9.400;2022-09-12T05:49:41;3.90;;;3.70;;
9056;SDS011;4563;54.756;9.400;2022-09-12T05:52:13;8.60;;;4.33;;
9056;SDS011;4563;54.756;9.400;2022-09-12T05:54:40;4.70;;;4.23;;
9056;SDS011;4563;54.756;9.400;2022-09-12T05:57:06;4.77;;;4.37;;
9056;SDS011;4563;54.756;9.400;2022-09-12T05:59:33;4.37;;;4.10;;
9056;SDS011;4563;54.756;9.400;2022-09-12T06:02:00;4.83;;;4.43;;
9056;SDS011;4563;54.756;9.400;2022-09-12T06:04:27;6.70;;;4.93;;
9056;SDS011;4563;54.756;9.400;2022-09-12T06:06:54;5.00;;;4.60;;
9056;SDS011;4563;54.756;9.400;2022-09-12T06:09:22;5.00;;;4.60;;
9056;SDS011;4563;54.756;9.400;2022-09-12T06:11:50;5.00;;;4.53;;
9056;SDS011;4563;54.756;9.400;2022-09-12T06:14:17;4.17;;;3.90;;
9056;SDS011;4563;54.756;9.400;2022-09-12T06:16:43;6.10;;;3.83;;
9056;SDS011;4563;54.756;9.400;2022-09-12T06:19:12;5.13;;;4.73;;
9056;SDS011;4563;54.756;9.400;2022-09-12T06:21:41;4.60;;;4.20;;
9056;SDS011;4563;54.756;9.400;2022-09-12T06:24:08;6.37;;;4.63;;
9056;SDS011;4563;54.756;9.400;2022-09-12T06:26:36;5.40;;;4.83;;
9056;SDS011;4563;54.756;9.400;2022-09-12T06:29:05;5.43;;;4.93;;
9056;SDS011;4563;54.756;9.400;2022-09-12T06:31:33;5.53;;;5.03;;
9056;SDS011;4563;54.756;9.400;2022-09-12T06:34:02;4.60;;;4.30;;
9056;SDS011;4563;54.756;9.400;2022-09-12T06:36:30;9.53;;;8.67;;
9056;SDS011;4563;54.756;9.400;2022-09-12T06:38:59;6.00;;;5.40;;
9056;SDS011;4563;54.756;9.400;2022-09-12T06:41:27;9.67;;;5.00;;
9056;SDS011;4563;54.756;9.400;2022-09-12T06:44:01;5.23;;;4.83;;
9056;SDS011;4563;54.756;9.400;2022-09-12T06:46:28;5.30;;;4.80;;
9056;SDS011;4563;54.756;9.400;2022-09-12T06:48:56;5.47;;;4.20;;
9056;SDS011;4563;54.756;9.400;2022-09-12T06:51:24;5.60;;;4.57;;
9056;SDS011;4563;54.756;9.400;2022-09-12T06:53:53;4.57;;;4.27;;
9056;SDS011;4563;54.756;9.400;2022-09-12T06:56:21;4.70;;;4.23;;
9056;SDS011;4563;54.756;9.400;2022-09-12T06:58:50;4.33;;;3.93;;
9056;SDS011;4563;54.756;9.400;2022-09-12T07:01:19;4.67;;;4.27;;
9056;SDS011;4563;54.756;9.400;2022-09-12T07:03:48;3.50;;;3.20;;
9056;SDS011;4563;54.756;9.400;2022-09-12T07:06:17;4.17;;;3.87;;
9056;SDS011;4563;54.756;9.400;2022-09-12T07:08:45;4.20;;;3.90;;
9056;SDS011;4563;54.756;9.400;2022-09-12T07:11:13;4.20;;;3.80;;
9056;SDS011;4563;54.756;9.400;2022-09-12T07:13:42;3.90;;;3.60;;
9056;SDS011;4563;54.756;9.400;2022-09-12T07:16:11;3.83;;;3.63;;
9056;SDS011;4563;54.756;9.400;2022-09-12T07:18:40;4.07;;;3.40;;
9056;SDS011;4563;54.756;9.400;2022-09-12T07:21:09;6.50;;;3.77;;
9056;SDS011;4563;54.756;9.400;2022-09-12T07:23:37;3.40;;;3.20;;
9056;SDS011;4563;54.756;9.400;2022-09-12T07:26:06;3.70;;;3.40;;
9056;SDS011;4563;54.756;9.400;2022-09-12T07:28:34;3.67;;;3.37;;
9056;SDS011;4563;54.756;9.400;2022-09-12T07:31:05;3.20;;;3.00;;
9056;SDS011;4563;54.756;9.400;2022-09-12T07:33:33;4.57;;;4.00;;
9056;SDS011;4563;54.756;9.400;2022-09-12T07:36:03;2.47;;;2.37;;
9056;SDS011;4563;54.756;9.400;2022-09-12T07:38:30;2.60;;;2.40;;
9056;SDS011;4563;54.756;9.400;2022-09-12T07:40:58;2.53;;;2.33;;
9056;SDS011;4563;54.756;9.400;2022-09-12T07:43:25;2.13;;;2.03;;
9056;SDS011;4563;54.756;9.400;2022-09-12T07:45:55;2.23;;;2.03;;
9056;SDS011;4563;54.756;9.400;2022-09-12T07:48:22;2.10;;;1.90;;
9056;SDS011;4563;54.756;9.400;2022-09-12T07:50:56;1.87;;;1.77;;
9056;SDS011;4563;54.756;9.400;2022-09-12T07:53:25;2.40;;;1.50;;
9056;SDS011;4563;54.756;9.400;2022-09-12T07:55:52;2.93;;;2.20;;
9056;SDS011;4563;54.756;9.400;2022-09-12T07:58:20;1.60;;;1.50;;
9056;SDS011;4563;54.756;9.400;2022-09-12T08:00:46;1.60;;;1.50;;
9056;SDS011;4563;54.756;9.400;2022-09-12T08:03:13;7.47;;;6.57;;
9056;SDS011;4563;54.756;9.400;2022-09-12T08:05:40;1.70;;;1.60;;
9056;SDS011;4563;54.756;9.400;2022-09-12T08:08:07;1.47;;;1.37;;
9056;SDS011;4563;54.756;9.400;2022-09-12T08:10:35;1.30;;;1.20;;
9056;SDS011;4563;54.756;9.400;2022-09-12T08:13:02;1.47;;;1.10;;
9056;SDS011;4563;54.756;9.400;2022-09-12T08:15:29;1.33;;;1.20;;
9056;SDS011;4563;54.756;9.400;2022-09-12T08:17:56;1.83;;;1.30;;
9056;SDS011;4563;54.756;9.400;2022-09-12T08:20:23;4.07;;;1.80;;
9056;SDS011;4563;54.756;9.400;2022-09-12T08:22:49;1.80;;;1.10;;
9056;SDS011;4563;54.756;9.400;2022-09-12T08:25:16;1.30;;;1.10;;
9056;SDS011;4563;54.756;9.400;2022-09-12T08:27:44;1.17;;;1.17;;
9056;SDS011;4563;54.756;9.400;2022-09-12T08:30:12;1.07;;;1.07;;
9056;SDS011;4563;54.756;9.400;2022-09-12T08:32:39;2.03;;;1.20;;
9056;SDS011;4563;54.756;9.400;2022-09-12T08:35:06;2.07;;;1.60;;
9056;SDS011;4563;54.756;9.400;2022-09-12T08:37:33;1.80;;;1.67;;
9056;SDS011;4563;54.756;9.400;2022-09-12T08:40:00;2.83;;;1.70;;
9056;SDS011;4563;54.756;9.400;2022-09-12T08:42:32;2.17;;;2.00;;
9056;SDS011;4563;54.756;9.400;2022-09-12T08:45:15;1.70;;;1.60;;
9056;SDS011;4563;54.756;9.400;2022-09-12T08:47:44;4.40;;;4.00;;
9056;SDS011;4563;54.756;9.400;2022-09-12T08:50:14;2.90;;;2.80;;
9056;SDS011;4563;54.756;9.400;2022-09-12T08:52:46;2.87;;;2.70;;
9056;SDS011;4563;54.756;9.400;2022-09-12T08:55:25;8.63;;;2.73;;
9056;SDS011;4563;54.756;9.400;2022-09-12T08:57:56;2.20;;;2.00;;
9056;SDS011;4563;54.756;9.400;2022-09-12T09:00:26;2.47;;;2.37;;
9056;SDS011;4563;54.756;9.400;2022-09-12T09:06:09;5.27;;;2.03;;
9056;SDS011;4563;54.756;9.400;2022-09-12T09:08:47;2.27;;;2.17;;
9056;SDS011;4563;54.756;9.400;2022-09-12T09:11:28;2.40;;;1.90;;
9056;SDS011;4563;54.756;9.400;2022-09-12T09:14:11;2.37;;;2.00;;
9056;SDS011;4563;54.756;9.400;2022-09-12T09:17:10;2.23;;;2.00;;
9056;SDS011;4563;54.756;9.400;2022-09-12T09:19:41;2.10;;;1.80;;
9056;SDS011;4563;54.756;9.400;2022-09-12T09:22:13;2.00;;;1.90;;
9056;SDS011;4563;54.756;9.400;2022-09-12T09:24:44;4.63;;;2.13;;
9056;SDS011;4563;54.756;9.400;2022-09-12T09:27:18;1.60;;;1.50;;
9056;SDS011;4563;54.756;9.400;2022-09-12T09:29:53;1.60;;;1.50;;
9056;SDS011;4563;54.756;9.400;2022-09-12T09:32:25;2.60;;;1.87;;
9056;SDS011;4563;54.756;9.400;2022-09-12T09:34:53;1.30;;;1.20;;
9056;SDS011;4563;54.756;9.400;2022-09-12T09:37:23;1.50;;;1.40;;
9056;SDS011;4563;54.756;9.400;2022-09-12T09:39:56;1.57;;;1.47;;
9056;SDS011;4563;54.756;9.400;2022-09-12T09:42:33;1.80;;;1.70;;
9056;SDS011;4563;54.756;9.400;2022-09-12T09:45:10;1.37;;;1.27;;
9056;SDS011;4563;54.756;9.400;2022-09-12T09:47:42;2.20;;;2.00;;
9056;SDS011;4563;54.756;9.400;2022-09-12T09:50:12;1.43;;;1.40;;
9056;SDS011;4563;54.756;9.400;2022-09-12T09:52:41;1.10;;;1.10;;
9056;SDS011;4563;54.756;9.400;2022-09-12T09:55:11;6.17;;;1.70;;
9056;SDS011;4563;54.756;9.400;2022-09-12T09:57:41;2.17;;;1.67;;
9056;SDS011;4563;54.756;9.400;2022-09-12T10:00:25;1.70;;;1.60;;
9056;SDS011;4563;54.756;9.400;2022-09-12T10:03:06;1.50;;;1.40;;
9056;SDS011;4563;54.756;9.400;2022-09-12T10:05:51;1.70;;;1.30;;
9056;SDS011;4563;54.756;9.400;2022-09-12T10:08:19;1.40;;;1.23;;
9056;SDS011;4563;54.756;9.400;2022-09-12T10:10:58;1.50;;;1.40;;
9056;SDS011;4563;54.756;9.400;2022-09-12T10:16:49;1.10;;;1.10;;
9056;SDS011;4563;54.756;9.400;2022-09-12T10:19:20;1.10;;;1.10;;
9056;SDS011;4563;54.756;9.400;2022-09-12T10:21:49;1.63;;;1.10;;
9056;SDS011;4563;54.756;9.400;2022-09-12T10:24:19;1.70;;;1.60;;
9056;SDS011;4563;54.756;9.400;2022-09-12T10:26:49;0.70;;;0.70;;
9056;SDS011;4563;54.756;9.400;2022-09-12T10:29:21;0.80;;;0.80;;
9056;SDS011;4563;54.756;9.400;2022-09-12T10:31:52;1.50;;;1.40;;
9056;SDS011;4563;54.756;9.400;2022-09-12T10:34:23;2.87;;;1.30;;
9056;SDS011;4563;54.756;9.400;2022-09-12T10:36:57;1.93;;;1.30;;
9056;SDS011;4563;54.756;9.400;2022-09-12T10:39:27;1.30;;;1.20;;
9056;SDS011;4563;54.756;9.400;2022-09-12T10:41:56;1.03;;;1.03;;
9056;SDS011;4563;54.756;9.400;2022-09-12T10:44:25;1.30;;;1.30;;
9056;SDS011;4563;54.756;9.400;2022-09-12T10:46:53;3.67;;;1.60;;
9056;SDS011;4563;54.756;9.400;2022-09-12T10:49:26;2.93;;;1.17;;
9056;SDS011;4563;54.756;9.400;2022-09-12T10:51:55;1.37;;;1.20;;
9056;SDS011;4563;54.756;9.400;2022-09-12T10:54:40;1.30;;;1.30;;
9056;SDS011;4563;54.756;9.400;2022-09-12T10:57:15;1.00;;;1.00;;
9056;SDS011;4563;54.756;9.400;2022-09-12T11:00:03;1.83;;;1.73;;
9056;SDS011;4563;54.756;9.400;2022-09-12T11:02:52;2.87;;;1.73;;
9056;SDS011;4563;54.756;9.400;2022-09-12T11:11:34;1.30;;;1.20;;
9056;SDS011;4563;54.756;9.400;2022-09-12T11:14:09;1.30;;;1.20;;
9056;SDS011;4563;54.756;9.400;2022-09-12T11:16:49;1.60;;;1.37;;
9056;SDS011;4563;54.756;9.400;2022-09-12T11:19:36;1.27;;;1.07;;
9056;SDS011;4563;54.756;9.400;2022-09-12T11:22:27;1.30;;;1.20;;
9056;SDS011;4563;54.756;9.400;2022-09-12T11:25:11;1.77;;;1.50;;
9056;SDS011;4563;54.756;9.400;2022-09-12T11:27:53;1.30;;;1.20;;
9056;SDS011;4563;54.756;9.400;2022-09-12T11:33:57;1.37;;;1.27;;
9056;SDS011;4563;54.756;9.400;2022-09-12T11:37:06;1.60;;;1.50;;
9056;SDS011;4563;54.756;9.400;2022-09-12T11:39:52;2.00;;;1.90;;
9056;SDS011;4563;54.756;9.400;2022-09-12T11:42:25;1.80;;;1.50;;
9056;SDS011;4563;54.756;9.400;2022-09-12T11:45:08;1.90;;;1.77;;
9056;SDS011;4563;54.756;9.400;2022-09-12T11:47:40;1.47;;;1.37;;
9056;SDS011;4563;54.756;9.400;2022-09-12T11:50:14;1.80;;;1.70;;
9056;SDS011;4563;54.756;9.400;2022-09-12T11:52:45;3.93;;;1.50;;
9056;SDS011;4563;54.756;9.400;2022-09-12T11:55:15;1.97;;;1.87;;
9056;SDS011;4563;54.756;9.400;2022-09-12T11:57:46;2.13;;;1.93;;
9056;SDS011;4563;54.756;9.400;2022-09-12T12:00:18;2.27;;;2.07;;
9056;SDS011;4563;54.756;9.400;2022-09-12T12:02:50;1.60;;;1.50;;
9056;SDS011;4563;54.756;9.400;2022-09-12T12:05:24;1.43;;;1.43;;
9056;SDS011;4563;54.756;9.400;2022-09-12T12:07:54;1.10;;;1.10;;
9056;SDS011;4563;54.756;9.400;2022-09-12T12:10:25;1.03;;;0.97;;
9056;SDS011;4563;54.756;9.400;2022-09-12T12:12:57;1.00;;;1.00;;
9056;SDS011;4563;54.756;9.400;2022-09-12T12:15:26;5.57;;;1.40;;
9056;SDS011;4563;54.756;9.400;2022-09-12T12:18:01;1.80;;;1.27;;
9056;SDS011;4563;54.756;9.400;2022-09-12T12:20:30;1.10;;;1.10;;
9056;SDS011;4563;54.756;9.400;2022-09-12T12:22:57;1.20;;;1.20;;
9056;SDS011;4563;54.756;9.400;2022-09-12T12:25:36;1.83;;;1.43;;
9056;SDS011;4563;54.756;9.400;2022-09-12T12:28:05;2.00;;;1.10;;
9056;SDS011;4563;54.756;9.400;2022-09-12T12:36:29;2.13;;;1.37;;
9056;SDS011;4563;54.756;9.400;2022-09-12T12:45:47;1.17;;;1.17;;
9056;SDS011;4563;54.756;9.400;2022-09-12T12:48:42;3.07;;;1.43;;
9056;SDS011;4563;54.756;9.400;2022-09-12T12:51:32;4.40;;;1.27;;
9056;SDS011;4563;54.756;9.400;2022-09-12T12:54:08;2.27;;;1.50;;
9056;SDS011;4563;54.756;9.400;2022-09-12T12:56:59;2.07;;;1.93;;
9056;SDS011;4563;54.756;9.400;2022-09-12T12:59:28;1.60;;;1.50;;
9056;SDS011;4563;54.756;9.400;2022-09-12T13:01:57;2.37;;;2.23;;
9056;SDS011;4563;54.756;9.400;2022-09-12T13:04:25;1.70;;;1.60;;
9056;SDS011;4563;54.756;9.400;2022-09-12T13:06:56;1.60;;;1.50;;
9056;SDS011;4563;54.756;9.400;2022-09-12T13:09:27;1.47;;;1.30;;
9056;SDS011;4563;54.756;9.400;2022-09-12T13:11:59;3.23;;;1.63;;
9056;SDS011;4563;54.756;9.400;2022-09-12T13:14:36;1.60;;;1.50;;
9056;SDS011;4563;54.756;9.400;2022-09-12T13:17:17;1.80;;;1.70;;
9056;SDS011;4563;54.756;9.400;2022-09-12T13:19:49;2.03;;;1.80;;
9056;SDS011;4563;54.756;9.400;2022-09-12T13:22:20;3.03;;;1.83;;
9056;SDS011;4563;54.756;9.400;2022-09-12T13:24:49;1.27;;;1.23;;
9056;SDS011;4563;54.756;9.400;2022-09-12T13:27:17;2.20;;;1.93;;
9056;SDS011;4563;54.756;9.400;2022-09-12T13:29:45;2.33;;;1.60;;
9056;SDS011;4563;54.756;9.400;2022-09-12T13:32:11;2.00;;;1.27;;
9056;SDS011;4563;54.756;9.400;2022-09-12T13:34:44;3.17;;;1.80;;
9056;SDS011;4563;54.756;9.400;2022-09-12T13:37:29;2.13;;;2.00;;
9056;SDS011;4563;54.756;9.400;2022-09-12T13:40:13;2.07;;;1.90;;
9056;SDS011;4563;54.756;9.400;2022-09-12T13:42:51;3.10;;;2.90;;
9056;SDS011;4563;54.756;9.400;2022-09-12T13:45:31;2.43;;;2.33;;
9056;SDS011;4563;54.756;9.400;2022-09-12T13:48:02;2.67;;;2.43;;
9056;SDS011;4563;54.756;9.400;2022-09-12T13:50:37;2.70;;;2.50;;
9056;SDS011;4563;54.756;9.400;2022-09-12T13:53:10;3.33;;;2.40;;
9056;SDS011;4563;54.756;9.400;2022-09-12T13:55:40;2.63;;;2.43;;
9056;SDS011;4563;54.756;9.400;2022-09-12T13:58:14;2.87;;;2.60;;
9056;SDS011;4563;54.756;9.400;2022-09-12T14:00:44;3.93;;;2.50;;
9056;SDS011;4563;54.756;9.400;2022-09-12T14:03:18;2.33;;;2.00;;
9056;SDS011;4563;54.756;9.400;2022-09-12T14:06:10;3.97;;;2.23;;
9056;SDS011;4563;54.756;9.400;2022-09-12T14:08:43;2.30;;;2.17;;
9056;SDS011;4563;54.756;9.400;2022-09-12T14:11:11;2.93;;;2.30;;
9056;SDS011;4563;54.756;9.400;2022-09-12T14:13:46;4.73;;;2.30;;
9056;SDS011;4563;54.756;9.400;2022-09-12T14:16:12;5.23;;;2.53;;
9056;SDS011;4563;54.756;9.400;2022-09-12T14:18:41;3.97;;;2.70;;
9056;SDS011;4563;54.756;9.400;2022-09-12T14:21:11;2.47;;;2.17;;
9056;SDS011;4563;54.756;9.400;2022-09-12T14:23:48;2.70;;;2.40;;
9056;SDS011;4563;54.756;9.400;2022-09-12T14:26:15;9.33;;;2.73;;
9056;SDS011;4563;54.756;9.400;2022-09-12T14:28:43;2.80;;;2.50;;
9056;SDS011;4563;54.756;9.400;2022-09-12T14:31:19;3.00;;;2.60;;
9056;SDS011;4563;54.756;9.400;2022-09-12T14:33:49;2.67;;;2.50;;
9056;SDS011;4563;54.756;9.400;2022-09-12T14:36:20;2.40;;;2.10;;
9056;SDS011;4563;54.756;9.400;2022-09-12T14:38:50;3.60;;;2.50;;
9056;SDS011;4563;54.756;9.400;2022-09-12T14:41:22;3.63;;;2.53;;
9056;SDS011;4563;54.756;9.400;2022-09-12T14:43:53;4.03;;;2.57;;
9056;SDS011;4563;54.756;9.400;2022-09-12T14:46:23;3.10;;;2.33;;
9056;SDS011;4563;54.756;9.400;2022-09-12T14:48:55;2.23;;;2.03;;
9056;SDS011;4563;54.756;9.400;2022-09-12T14:51:26;3.20;;;2.20;;
9056;SDS011;4563;54.756;9.400;2022-09-12T14:53:56;2.30;;;2.10;;
9056;SDS011;4563;54.756;9.400;2022-09-12T14:56:36;3.40;;;2.17;;
9056;SDS011;4563;54.756;9.400;2022-09-12T14:59:22;2.67;;;1.93;;
9056;SDS011;4563;54.756;9.400;2022-09-12T15:04:51;3.50;;;2.37;;
9056;SDS011;4563;54.756;9.400;2022-09-12T15:07:23;4.13;;;2.43;;
9056;SDS011;4563;54.756;9.400;2022-09-12T15:09:57;5.37;;;4.87;;
9056;SDS011;4563;54.756;9.400;2022-09-12T15:12:25;5.70;;;2.37;;
9056;SDS011;4563;54.756;9.400;2022-09-12T15:14:52;2.70;;;2.00;;
9056;SDS011;4563;54.756;9.400;2022-09-12T15:17:23;2.83;;;2.63;;
9056;SDS011;4563;54.756;9.400;2022-09-12T15:19:50;4.50;;;2.83;;
9056;SDS011;4563;54.756;9.400;2022-09-12T15:22:17;3.57;;;2.43;;
9056;SDS011;4563;54.756;9.400;2022-09-12T15:24:46;2.70;;;2.23;;
9056;SDS011;4563;54.756;9.400;2022-09-12T15:27:13;2.73;;;2.53;;
9056;SDS011;4563;54.756;9.400;2022-09-12T15:29:40;3.17;;;2.60;;
9056;SDS011;4563;54.756;9.400;2022-09-12T15:32:08;2.63;;;2.53;;
9056;SDS011;4563;54.756;9.400;2022-09-12T15:34:47;2.93;;;2.73;;
9056;SDS011;4563;54.756;9.400;2022-09-12T15:37:13;3.07;;;2.87;;
9056;SDS011;4563;54.756;9.400;2022-09-12T15:39:41;4.70;;;2.90;;
9056;SDS011;4563;54.756;9.400;2022-09-12T15:42:12;3.40;;;3.03;;
9056;SDS011;4563;54.756;9.400;2022-09-12T15:44:40;3.70;;;2.90;;
9056;SDS011;4563;54.756;9.400;2022-09-12T15:47:07;4.40;;;3.20;;
9056;SDS011;4563;54.756;9.400;2022-09-12T15:49:37;3.03;;;2.73;;
9056;SDS011;4563;54.756;9.400;2022-09-12T15:52:04;3.50;;;2.77;;
9056;SDS011;4563;54.756;9.400;2022-09-12T15:54:32;3.53;;;3.03;;
9056;SDS011;4563;54.756;9.400;2022-09-12T15:57:00;2.93;;;2.63;;
9056;SDS011;4563;54.756;9.400;2022-09-12T15:59:28;3.83;;;2.77;;
9056;SDS011;4563;54.756;9.400;2022-09-12T16:01:55;4.93;;;2.60;;
9056;SDS011;4563;54.756;9.400;2022-09-12T16:04:23;2.67;;;2.50;;
9056;SDS011;4563;54.756;9.400;2022-09-12T16:06:51;3.60;;;2.57;;
9056;SDS011;4563;54.756;9.400;2022-09-12T16:09:19;2.97;;;2.40;;
9056;SDS011;4563;54.756;9.400;2022-09-12T16:11:46;5.47;;;2.90;;